createdAt,value
2022-10-08T00:01:31.220Z,51.30
2022-10-08T00:03:59.597Z,52.10
2022-10-08T00:06:29.848Z,51.90
2022-10-08T00:08:59.189Z,52.40
2022-10-08T00:11:30.395Z,53.60
2022-10-08T00:13:58.754Z,52.30
2022-10-08T00:16:29.530Z,51.70
2022-10-08T00:19:01.068Z,50.80
2022-10-08T00:21:31.488Z,49.80
2022-10-08T00:24:01.301Z,49.10
2022-10-08T00:26:32.124Z,48.60
2022-10-08T00:29:01.681Z,48.00
2022-10-08T00:31:32.500Z,47.70
2022-10-08T00:34:03.184Z,48.30
2022-10-08T00:36:32.973Z,48.20
2022-10-08T00:39:02.956Z,48.70
2022-10-08T00:41:34.796Z,49.10
2022-10-08T00:44:04.085Z,49.10
2022-10-08T00:46:36.617Z,49.70
2022-10-08T00:49:07.947Z,49.60
2022-10-08T00:51:35.898Z,50.00
2022-10-08T00:54:05.295Z,50.20
2022-10-08T00:56:38.207Z,49.90
2022-10-08T00:59:06.967Z,49.30
2022-10-08T01:01:35.912Z,48.70
2022-10-08T01:04:07.575Z,47.70
2022-10-08T01:06:44.355Z,47.40
2022-10-08T01:09:19.043Z,48.30
2022-10-08T01:11:52.104Z,49.30
2022-10-08T01:14:30.758Z,49.90
2022-10-08T01:17:09.005Z,50.10
2022-10-08T01:20:00.308Z,51.00
2022-10-08T01:22:44.255Z,50.70
2022-10-08T01:25:34.838Z,51.20
2022-10-08T01:28:14.779Z,49.40
2022-10-08T01:30:50.836Z,49.10
2022-10-08T01:33:25.919Z,49.50
2022-10-08T01:35:57.394Z,48.80
2022-10-08T01:38:29.130Z,49.10
2022-10-08T01:41:00.521Z,48.90
2022-10-08T01:43:35.878Z,48.60
2022-10-08T01:46:10.417Z,48.80
2022-10-08T01:48:43.060Z,49.00
2022-10-08T01:51:15.849Z,49.00
2022-10-08T01:53:46.841Z,48.60
2022-10-08T01:56:19.097Z,48.90
2022-10-08T01:58:54.926Z,48.90
2022-10-08T02:01:28.668Z,49.10
2022-10-08T02:04:14.371Z,49.00
2022-10-08T02:06:45.895Z,48.50
2022-10-08T02:09:14.035Z,49.00
2022-10-08T02:11:41.969Z,49.00
2022-10-08T02:14:11.718Z,48.90
2022-10-08T02:16:48.864Z,48.20
2022-10-08T02:19:24.701Z,48.40
2022-10-08T02:21:56.233Z,48.60
2022-10-08T02:24:31.533Z,48.10
2022-10-08T02:27:01.683Z,47.60
2022-10-08T02:29:36.200Z,47.40
2022-10-08T02:32:09.498Z,47.40
2022-10-08T02:34:42.586Z,47.30
2022-10-08T02:37:13.549Z,47.00
2022-10-08T02:39:47.575Z,46.80
2022-10-08T02:42:18.886Z,46.70
2022-10-08T02:44:53.185Z,46.70
2022-10-08T02:47:26.055Z,46.80
2022-10-08T02:49:57.427Z,47.30
2022-10-08T02:52:29.008Z,47.30
2022-10-08T02:55:02.321Z,47.30
2022-10-08T02:57:35.674Z,47.20
2022-10-08T03:00:06.001Z,46.80
2022-10-08T03:02:38.768Z,46.60
2022-10-08T03:05:09.771Z,46.00
2022-10-08T03:07:38.182Z,45.90
2022-10-08T03:10:07.697Z,46.50
2022-10-08T03:12:35.693Z,47.30
2022-10-08T03:15:05.856Z,46.80
2022-10-08T03:17:38.778Z,46.60
2022-10-08T03:20:09.689Z,46.60
2022-10-08T03:22:38.050Z,46.20
2022-10-08T03:25:06.486Z,46.40
2022-10-08T03:27:35.096Z,46.70
2022-10-08T03:30:05.073Z,46.40
2022-10-08T03:32:32.980Z,46.20
2022-10-08T03:35:01.005Z,46.10
2022-10-08T03:37:28.930Z,46.20
2022-10-08T03:39:56.834Z,46.30
2022-10-08T03:42:24.746Z,46.20
2022-10-08T03:44:53.596Z,45.90
2022-10-08T03:47:22.835Z,45.80
2022-10-08T03:49:50.722Z,45.70
2022-10-08T03:52:18.651Z,45.70
2022-10-08T03:54:46.600Z,45.50
2022-10-08T03:57:14.554Z,45.80
2022-10-08T03:59:42.469Z,45.90
2022-10-08T04:02:10.400Z,46.00
2022-10-08T04:04:39.716Z,46.10
2022-10-08T04:07:07.597Z,47.20
2022-10-08T04:09:35.519Z,47.20
2022-10-08T04:12:03.436Z,47.00
2022-10-08T04:14:31.383Z,47.10
2022-10-08T04:16:59.893Z,46.70
2022-10-08T04:19:27.824Z,46.50
2022-10-08T04:21:57.097Z,46.50
2022-10-08T04:24:25.094Z,46.80
2022-10-08T04:26:53.024Z,46.20
2022-10-08T04:29:20.969Z,46.20
2022-10-08T04:31:48.914Z,45.90
2022-10-08T04:34:16.917Z,45.60
2022-10-08T04:36:44.848Z,45.70
2022-10-08T04:39:14.074Z,45.70
2022-10-08T04:41:41.987Z,45.70
2022-10-08T04:44:09.891Z,45.60
2022-10-08T04:46:37.821Z,45.70
2022-10-08T04:49:05.801Z,46.10
2022-10-08T04:51:33.721Z,46.10
2022-10-08T04:54:02.785Z,46.30
2022-10-08T04:56:34.689Z,45.80
2022-10-08T04:59:03.134Z,45.60
2022-10-08T05:01:31.581Z,45.70
2022-10-08T05:04:00.301Z,45.60
2022-10-08T05:06:30.317Z,46.60
2022-10-08T05:09:02.459Z,47.00
2022-10-08T05:11:32.328Z,47.60
2022-10-08T05:14:00.675Z,47.80
2022-10-08T05:16:28.907Z,48.40
2022-10-08T05:18:57.783Z,47.90
2022-10-08T05:21:27.832Z,48.80
2022-10-08T05:23:56.886Z,48.50
2022-10-08T05:26:46.522Z,47.90
2022-10-08T05:29:16.061Z,47.80
2022-10-08T05:31:44.000Z,47.40
2022-10-08T05:34:13.717Z,47.80
2022-10-08T05:36:41.943Z,47.60
2022-10-08T05:39:11.298Z,47.30
2022-10-08T05:41:39.401Z,47.80
2022-10-08T05:44:08.458Z,47.00
2022-10-08T05:46:39.175Z,47.30
2022-10-08T05:49:09.589Z,47.50
2022-10-08T05:51:38.435Z,47.50
2022-10-08T05:54:06.648Z,47.50
2022-10-08T05:56:34.565Z,47.50
2022-10-08T05:59:02.475Z,46.80
2022-10-08T06:01:32.337Z,46.70
2022-10-08T06:04:08.408Z,46.50
2022-10-08T06:06:37.231Z,46.40
2022-10-08T06:09:06.432Z,46.20
2022-10-08T06:11:36.529Z,46.30
2022-10-08T06:14:07.031Z,46.10
2022-10-08T06:16:38.381Z,46.40
2022-10-08T06:19:08.901Z,46.50
2022-10-08T06:21:37.386Z,46.70
2022-10-08T06:24:08.043Z,46.40
2022-10-08T06:26:38.866Z,47.30
2022-10-08T06:29:08.209Z,46.50
2022-10-08T06:31:36.619Z,47.20
2022-10-08T06:34:05.190Z,47.40
2022-10-08T06:36:37.024Z,47.50
2022-10-08T06:39:07.071Z,47.80
2022-10-08T06:41:35.638Z,47.60
2022-10-08T06:44:04.129Z,48.60
2022-10-08T06:46:32.768Z,48.80
2022-10-08T06:49:02.037Z,49.30
2022-10-08T06:51:30.438Z,49.50
2022-10-08T06:54:07.477Z,49.00
2022-10-08T06:56:37.054Z,49.00
2022-10-08T06:59:05.632Z,48.90
2022-10-08T07:01:35.051Z,48.80
2022-10-08T07:04:04.510Z,48.10
2022-10-08T07:06:32.674Z,47.40
2022-10-08T07:09:03.075Z,47.60
2022-10-08T07:11:32.305Z,47.50
2022-10-08T07:14:01.610Z,47.30
2022-10-08T07:16:29.989Z,46.90
2022-10-08T07:18:59.254Z,46.90
2022-10-08T07:21:28.730Z,46.50
2022-10-08T07:23:57.242Z,47.00
2022-10-08T07:26:29.615Z,47.40
2022-10-08T07:28:59.857Z,48.10
2022-10-08T07:31:30.021Z,48.10
2022-10-08T07:33:58.759Z,48.50
2022-10-08T07:36:27.809Z,47.70
2022-10-08T07:38:57.354Z,47.70
2022-10-08T07:41:27.226Z,47.40
2022-10-08T07:43:58.384Z,48.10
2022-10-08T07:46:27.314Z,48.30
2022-10-08T07:48:56.729Z,48.10
2022-10-08T07:51:24.712Z,47.60
2022-10-08T07:53:53.131Z,47.30
2022-10-08T07:56:22.421Z,47.00
2022-10-08T07:58:52.323Z,47.30
2022-10-08T08:01:21.744Z,46.70
2022-10-08T08:03:55.242Z,46.30
2022-10-08T08:06:24.082Z,46.80
2022-10-08T08:08:53.306Z,46.30
2022-10-08T08:11:23.153Z,46.60
2022-10-08T08:13:53.523Z,46.50
2022-10-08T08:16:23.274Z,46.70
2022-10-08T08:18:53.304Z,47.60
2022-10-08T08:21:23.083Z,46.90
2022-10-08T08:23:52.636Z,45.00
2022-10-08T08:26:22.907Z,45.90
2022-10-08T08:28:57.433Z,46.10
2022-10-08T08:31:28.312Z,46.30
2022-10-08T08:33:59.062Z,46.90
2022-10-08T08:36:29.732Z,45.50
2022-10-08T08:38:58.799Z,46.40
2022-10-08T08:41:45.489Z,47.40
2022-10-08T08:44:20.793Z,47.00
2022-10-08T08:46:53.674Z,46.00
2022-10-08T08:49:29.394Z,46.50
2022-10-08T08:51:59.108Z,46.50
2022-10-08T08:54:27.256Z,45.90
2022-10-08T08:56:56.207Z,47.20
2022-10-08T08:59:29.453Z,46.80
2022-10-08T09:02:01.097Z,46.80
2022-10-08T09:04:42.909Z,45.70
2022-10-08T09:07:17.651Z,46.30
2022-10-08T09:09:49.009Z,47.80
2022-10-08T09:12:21.142Z,46.60
2022-10-08T09:14:54.573Z,46.30
2022-10-08T09:17:30.037Z,46.00
2022-10-08T09:19:58.224Z,45.80
2022-10-08T09:22:28.720Z,44.40
2022-10-08T09:25:00.777Z,44.40
2022-10-08T09:27:50.222Z,44.20
2022-10-08T09:30:32.013Z,43.00
2022-10-08T09:33:02.959Z,43.20
2022-10-08T09:35:34.578Z,43.60
2022-10-08T09:38:05.908Z,43.20
2022-10-08T09:40:34.351Z,42.30
2022-10-08T09:43:11.726Z,41.40
2022-10-08T09:45:46.071Z,42.50
2022-10-08T09:48:19.758Z,42.10
2022-10-08T09:50:57.797Z,41.70
2022-10-08T09:53:29.333Z,42.70
2022-10-08T09:56:01.227Z,41.70
2022-10-08T09:58:31.917Z,42.00
2022-10-08T10:01:05.116Z,41.30
2022-10-08T10:03:35.910Z,41.00
2022-10-08T10:06:04.336Z,40.60
2022-10-08T10:08:43.206Z,39.90
2022-10-08T10:11:14.115Z,40.90
2022-10-08T10:13:42.376Z,41.10
2022-10-08T10:16:17.396Z,40.90
2022-10-08T10:18:54.232Z,40.70
2022-10-08T10:21:31.943Z,42.00
2022-10-08T10:24:09.430Z,42.10
2022-10-08T10:26:41.472Z,42.50
2022-10-08T10:29:15.128Z,41.90
2022-10-08T10:31:51.383Z,41.80
2022-10-08T10:34:24.752Z,41.80
2022-10-08T10:36:57.298Z,42.70
2022-10-08T10:39:34.928Z,42.60
2022-10-08T10:42:10.985Z,41.20
2022-10-08T10:44:49.916Z,41.90
2022-10-08T10:47:21.036Z,41.90
2022-10-08T10:49:51.032Z,42.60
2022-10-08T10:52:34.586Z,41.70
2022-10-08T10:55:19.093Z,41.90
2022-10-08T10:58:04.362Z,42.00
2022-10-08T11:00:40.170Z,42.40
2022-10-08T11:03:16.144Z,42.90
2022-10-08T11:05:46.129Z,42.70
2022-10-08T11:08:27.130Z,42.90
2022-10-08T11:11:08.248Z,43.20
2022-10-08T11:13:54.821Z,42.50
2022-10-08T11:16:36.624Z,43.70
2022-10-08T11:19:10.462Z,43.20
2022-10-08T11:21:48.877Z,43.40
2022-10-08T11:24:36.884Z,44.00
2022-10-08T11:27:13.546Z,43.90
2022-10-08T11:29:50.753Z,42.50
2022-10-08T11:32:20.250Z,41.40
2022-10-08T11:34:53.430Z,42.70
2022-10-08T11:37:28.235Z,42.90
2022-10-08T11:40:04.739Z,43.10
2022-10-08T11:42:43.892Z,42.30
2022-10-08T11:45:31.829Z,41.60
2022-10-08T11:48:00.911Z,42.00
2022-10-08T11:50:35.047Z,42.40
2022-10-08T11:53:18.250Z,42.40
2022-10-08T11:55:52.091Z,42.30
2022-10-08T11:58:23.777Z,42.80
2022-10-08T12:01:01.304Z,42.30
2022-10-08T12:03:34.463Z,42.70
2022-10-08T12:06:17.047Z,43.60
2022-10-08T12:08:54.520Z,42.80
2022-10-08T12:11:46.392Z,43.00
2022-10-08T12:14:34.005Z,43.20
2022-10-08T12:17:11.943Z,43.10
2022-10-08T12:19:58.404Z,43.40
2022-10-08T12:23:00.085Z,42.90
2022-10-08T12:25:37.941Z,42.70
2022-10-08T12:28:47.537Z,42.60
2022-10-08T12:31:30.322Z,43.00
2022-10-08T12:34:00.954Z,42.50
2022-10-08T12:36:45.943Z,42.50
2022-10-08T12:39:25.691Z,41.80
2022-10-08T12:42:04.944Z,43.10
2022-10-08T12:44:44.962Z,43.00
2022-10-08T12:47:23.446Z,43.20
2022-10-08T12:49:57.822Z,42.70
2022-10-08T12:52:26.687Z,42.90
2022-10-08T12:54:58.637Z,42.60
2022-10-08T12:57:30.257Z,44.10
2022-10-08T12:59:59.684Z,43.00
2022-10-08T13:02:34.943Z,43.10
2022-10-08T13:05:03.117Z,43.70
2022-10-08T13:07:33.964Z,43.10
2022-10-08T13:10:18.698Z,43.20
2022-10-08T13:13:00.349Z,43.90
2022-10-08T13:15:28.483Z,44.20
2022-10-08T13:17:56.381Z,43.90
2022-10-08T13:20:25.235Z,44.90
2022-10-08T13:22:53.310Z,45.20
2022-10-08T13:25:40.894Z,45.50
2022-10-08T13:28:14.058Z,45.30
2022-10-08T13:30:44.643Z,45.40
2022-10-08T13:33:17.329Z,45.80
2022-10-08T13:35:52.251Z,45.70
2022-10-08T13:38:24.809Z,45.70
2022-10-08T13:40:58.495Z,45.50
2022-10-08T13:43:27.167Z,44.60
2022-10-08T13:45:55.218Z,44.50
2022-10-08T13:48:23.164Z,45.20
2022-10-08T13:50:52.425Z,45.10
2022-10-08T13:53:23.783Z,45.30
2022-10-08T13:55:52.059Z,44.50
2022-10-08T13:58:21.704Z,45.10
2022-10-08T14:00:50.490Z,45.00
2022-10-08T14:03:18.644Z,44.80
2022-10-08T14:05:48.916Z,44.70
2022-10-08T14:08:19.737Z,45.50
2022-10-08T14:10:47.936Z,45.50
2022-10-08T14:13:18.425Z,45.60
2022-10-08T14:15:47.652Z,45.30
2022-10-08T14:18:15.649Z,45.60
2022-10-08T14:20:43.819Z,46.10
2022-10-08T14:23:14.136Z,46.20
2022-10-08T14:25:42.084Z,46.00
2022-10-08T14:28:10.067Z,45.80
2022-10-08T14:30:38.054Z,45.50
2022-10-08T14:33:11.154Z,46.20
2022-10-08T14:35:39.814Z,46.40
2022-10-08T14:38:10.631Z,46.60
2022-10-08T14:40:38.966Z,46.90
2022-10-08T14:43:06.897Z,47.10
2022-10-08T14:45:34.922Z,46.90
2022-10-08T14:48:02.961Z,47.10
2022-10-08T14:50:32.207Z,47.40
2022-10-08T14:53:00.125Z,47.30
2022-10-08T14:55:28.246Z,47.10
2022-10-08T14:57:56.155Z,47.40
2022-10-08T15:00:24.127Z,47.80
2022-10-08T15:02:52.005Z,48.10
2022-10-08T15:05:20.043Z,47.70
2022-10-08T15:07:51.267Z,47.50
2022-10-08T15:10:19.244Z,47.00
2022-10-08T15:12:47.375Z,47.50
2022-10-08T15:15:15.623Z,47.80
2022-10-08T15:17:43.522Z,48.00
2022-10-08T15:20:11.575Z,48.70
2022-10-08T15:22:39.538Z,49.30
2022-10-08T15:25:10.071Z,48.50
2022-10-08T15:27:38.014Z,48.10
2022-10-08T15:30:06.740Z,47.90
2022-10-08T15:32:34.705Z,47.70
2022-10-08T15:35:02.632Z,46.90
2022-10-08T15:37:30.893Z,46.90
2022-10-08T15:39:58.781Z,46.80
2022-10-08T15:42:28.016Z,46.60
2022-10-08T15:44:57.066Z,46.30
2022-10-08T15:47:25.137Z,46.60
2022-10-08T15:49:53.038Z,46.90
2022-10-08T15:52:22.355Z,46.40
2022-10-08T15:54:50.578Z,46.30
2022-10-08T15:57:19.566Z,46.50
2022-10-08T15:59:48.909Z,46.80
2022-10-08T16:02:18.208Z,46.40
2022-10-08T16:04:47.712Z,46.70
2022-10-08T16:07:15.849Z,47.00
2022-10-08T16:09:43.789Z,46.70
2022-10-08T16:12:11.913Z,46.40
2022-10-08T16:14:39.895Z,46.60
2022-10-08T16:17:09.533Z,46.60
2022-10-08T16:19:37.481Z,46.60
2022-10-08T16:22:07.712Z,46.70
2022-10-08T16:24:35.719Z,46.70
2022-10-08T16:27:03.672Z,46.60
2022-10-08T16:29:31.661Z,46.80
2022-10-08T16:31:59.611Z,47.00
2022-10-08T16:34:31.830Z,47.00
2022-10-08T16:37:01.335Z,47.00
2022-10-08T16:39:29.384Z,47.80
2022-10-08T16:41:57.324Z,48.00
2022-10-08T16:44:25.381Z,48.50
2022-10-08T16:46:54.148Z,48.50
2022-10-08T16:49:26.237Z,48.40
2022-10-08T16:51:57.973Z,48.70
2022-10-08T16:54:26.506Z,48.60
2022-10-08T16:56:54.858Z,49.10
2022-10-08T16:59:27.091Z,49.10
2022-10-08T17:01:57.516Z,49.00
2022-10-08T17:04:27.654Z,49.60
2022-10-08T17:06:57.374Z,49.40
2022-10-08T17:09:25.364Z,49.20
2022-10-08T17:11:53.342Z,49.80
2022-10-08T17:14:21.331Z,49.50
2022-10-08T17:16:50.259Z,49.30
2022-10-08T17:19:18.739Z,49.30
2022-10-08T17:21:46.842Z,49.00
2022-10-08T17:24:16.170Z,49.60
2022-10-08T17:26:48.912Z,48.70
2022-10-08T17:29:18.038Z,48.90
2022-10-08T17:31:46.307Z,49.20
2022-10-08T17:34:14.278Z,49.70
2022-10-08T17:36:44.076Z,50.20
2022-10-08T17:39:13.657Z,50.30
2022-10-08T17:41:44.133Z,50.00
2022-10-08T17:44:12.689Z,50.20
2022-10-08T17:46:42.734Z,50.20
2022-10-08T17:49:11.226Z,50.50
2022-10-08T17:51:39.745Z,51.40
2022-10-08T17:54:09.514Z,51.40
2022-10-08T17:56:37.603Z,51.70
2022-10-08T17:59:06.936Z,51.60
2022-10-08T18:01:36.267Z,53.10
2022-10-08T18:04:06.349Z,53.30
2022-10-08T18:06:35.649Z,53.80
2022-10-08T18:09:06.201Z,54.00
2022-10-08T18:11:39.065Z,54.10
2022-10-08T18:14:08.639Z,54.20
2022-10-08T18:16:37.111Z,53.90
2022-10-08T18:19:08.755Z,53.80
2022-10-08T18:21:37.269Z,53.70
2022-10-08T18:24:05.435Z,54.40
2022-10-08T18:26:36.605Z,54.10
2022-10-08T18:29:07.200Z,53.70
2022-10-08T18:31:37.394Z,53.50
2022-10-08T18:34:07.752Z,53.70
2022-10-08T18:36:37.135Z,53.10
2022-10-08T18:39:06.953Z,53.00
2022-10-08T18:41:38.055Z,53.10
2022-10-08T18:44:06.399Z,52.50
2022-10-08T18:46:37.175Z,52.40
2022-10-08T18:49:06.110Z,52.40
2022-10-08T18:51:35.523Z,52.30
2022-10-08T18:54:03.419Z,52.20
2022-10-08T18:56:35.401Z,51.80
2022-10-08T18:59:05.752Z,51.40
2022-10-08T19:01:36.510Z,50.60
2022-10-08T19:04:08.878Z,50.20
2022-10-08T19:06:42.234Z,49.80
2022-10-08T19:09:11.254Z,49.80
2022-10-08T19:11:44.716Z,49.60
2022-10-08T19:14:15.104Z,49.40
2022-10-08T19:16:43.794Z,49.70
2022-10-08T19:19:16.512Z,49.50
2022-10-08T19:21:47.305Z,49.50
2022-10-08T19:24:19.415Z,49.10
2022-10-08T19:26:48.443Z,49.90
2022-10-08T19:29:19.444Z,49.40
2022-10-08T19:31:48.514Z,50.00
2022-10-08T19:34:19.729Z,49.70
2022-10-08T19:36:48.073Z,49.70
2022-10-08T19:39:17.930Z,49.50
2022-10-08T19:41:46.430Z,49.70
2022-10-08T19:44:14.805Z,49.50
2022-10-08T19:46:45.352Z,49.50
2022-10-08T19:49:14.187Z,49.30
2022-10-08T19:51:43.962Z,49.80
2022-10-08T19:54:12.961Z,49.40
2022-10-08T19:56:41.177Z,49.00
2022-10-08T19:59:11.433Z,48.90
2022-10-08T20:01:41.185Z,49.50
2022-10-08T20:04:10.545Z,49.70
2022-10-08T20:06:42.261Z,49.80
2022-10-08T20:09:13.503Z,50.30
2022-10-08T20:11:42.757Z,50.20
2022-10-08T20:14:16.631Z,50.10
2022-10-08T20:16:44.976Z,50.80
2022-10-08T20:19:17.540Z,50.90
2022-10-08T20:21:46.127Z,51.30
2022-10-08T20:24:16.000Z,51.60
2022-10-08T20:26:45.141Z,51.60
2022-10-08T20:29:16.024Z,51.40
2022-10-08T20:31:46.276Z,51.40
2022-10-08T20:34:17.432Z,51.50
2022-10-08T20:36:45.677Z,51.50
2022-10-08T20:39:16.448Z,51.30
2022-10-08T20:41:44.556Z,51.70
2022-10-08T20:44:12.562Z,51.60
2022-10-08T20:46:40.612Z,52.00
2022-10-08T20:49:09.066Z,52.10
2022-10-08T20:51:40.272Z,52.30
2022-10-08T20:54:10.379Z,52.80
2022-10-08T20:56:40.673Z,52.00
2022-10-08T20:59:11.614Z,52.10
2022-10-08T21:01:42.775Z,52.40
2022-10-08T21:04:10.963Z,52.50
2022-10-08T21:06:41.530Z,52.70
2022-10-08T21:09:12.558Z,53.00
2022-10-08T21:11:42.496Z,52.70
2022-10-08T21:14:11.411Z,52.80
2022-10-08T21:16:40.943Z,52.80
2022-10-08T21:19:12.458Z,53.30
2022-10-08T21:21:40.727Z,53.50
2022-10-08T21:24:10.660Z,53.40
2022-10-08T21:26:41.282Z,53.50
2022-10-08T21:29:11.493Z,53.60
2022-10-08T21:31:40.966Z,53.80
2022-10-08T21:34:09.749Z,53.80
2022-10-08T21:36:40.185Z,53.90
2022-10-08T21:39:09.924Z,53.60
2022-10-08T21:41:38.275Z,53.30
2022-10-08T21:44:08.849Z,53.70
2022-10-08T21:46:38.914Z,53.30
2022-10-08T21:49:09.603Z,53.30
2022-10-08T21:51:37.841Z,53.30
2022-10-08T21:54:07.421Z,53.50
2022-10-08T21:56:37.022Z,53.10
2022-10-08T21:59:07.675Z,53.40
2022-10-08T22:01:37.665Z,53.80
2022-10-08T22:04:07.453Z,54.20
2022-10-08T22:06:37.263Z,54.10
2022-10-08T22:09:05.953Z,53.70
2022-10-08T22:11:33.929Z,54.00
2022-10-08T22:14:01.863Z,55.00
2022-10-08T22:16:31.359Z,54.80
2022-10-08T22:19:00.609Z,55.40
2022-10-08T22:21:28.943Z,54.90
2022-10-08T22:23:56.967Z,54.00
2022-10-08T22:26:30.347Z,53.90
2022-10-08T22:28:58.578Z,54.20
2022-10-08T22:31:30.416Z,54.70
2022-10-08T22:34:00.051Z,54.60
2022-10-08T22:36:29.537Z,54.80
2022-10-08T22:38:58.244Z,54.80
2022-10-08T22:41:27.850Z,54.40
2022-10-08T22:43:55.922Z,54.00
2022-10-08T22:46:26.165Z,52.90
2022-10-08T22:48:59.721Z,53.70
2022-10-08T22:51:28.506Z,53.80
2022-10-08T22:53:56.744Z,53.10
2022-10-08T22:56:26.573Z,53.00
2022-10-08T22:58:54.613Z,52.90
2022-10-08T23:01:24.166Z,53.20
2022-10-08T23:03:55.128Z,53.40
2022-10-08T23:06:27.370Z,53.70
2022-10-08T23:08:57.102Z,53.30
2022-10-08T23:11:25.299Z,53.50
2022-10-08T23:13:54.649Z,53.00
2022-10-08T23:16:23.522Z,52.20
2022-10-08T23:18:55.375Z,51.90
2022-10-08T23:21:24.891Z,51.90
2022-10-08T23:23:53.727Z,51.50
2022-10-08T23:26:22.729Z,51.50
2022-10-08T23:28:52.593Z,51.00
2022-10-08T23:31:22.995Z,51.20
2022-10-08T23:33:52.633Z,51.20
2022-10-08T23:36:23.181Z,51.80
2022-10-08T23:38:53.116Z,52.10
2022-10-08T23:41:21.331Z,51.60
2022-10-08T23:43:51.314Z,50.90
2022-10-08T23:46:21.290Z,51.00
2022-10-08T23:48:50.238Z,51.50
2022-10-08T23:51:19.379Z,50.90
2022-10-08T23:53:47.944Z,50.10
2022-10-08T23:56:17.288Z,49.60
2022-10-08T23:58:45.453Z,49.60
